MST,Max TemperatureF,Mean TemperatureF,Min TemperatureF,Max Dew PointF,MeanDew PointF,Min DewpointF,Max Humidity, Mean Humidity, Min Humidity, Max Sea Level PressureIn, Mean Sea Level PressureIn, Min Sea Level PressureIn, Max VisibilityMiles, Mean VisibilityMiles, Min VisibilityMiles, Max Wind SpeedMPH, Mean Wind SpeedMPH, Max Gust SpeedMPH,PrecipitationIn, CloudCover, Events, WindDirDegrees
2013-2-1,41,24,7,32,22,3,83,71,59,30.22,30.11,29.92,10,10,10,28,7,32,0.00,5,,327
2013-2-2,47,35,23,24,22,18,81,59,37,30.27,30.19,30.15,10,10,10,46,17,55,0.00,0,,310
2013-2-3,58,40,21,27,19,15,75,47,19,30.17,29.97,29.81,10,10,10,33,9,43,0.00,0,,300
2013-2-4,50,36,21,26,22,17,85,60,34,29.95,29.88,29.80,10,10,10,22,6,28,0.00,6,,303
2013-2-5,49,39,28,27,25,23,72,56,39,30.04,29.92,29.81,10,10,10,20,9,24,0.00,5,,90
2013-2-6,52,39,25,26,23,19,81,58,34,30.07,29.89,29.72,10,10,10,30,12,36,0.00,2,,323
2013-2-7,51,37,23,21,18,14,75,50,24,30.18,30.11,30.02,10,10,10,14,8,18,0.00,0,,212
2013-2-8,45,34,23,23,21,17,81,60,39,30.00,29.92,29.88,10,10,10,16,9,23,0.00,0,,32
2013-2-9,39,29,19,27,22,18,100,76,52,29.90,29.81,29.67,10,7,0,29,16,33,0.00,6,Fog,4
2013-2-10,30,25,19,27,20,9,85,74,63,30.12,29.81,29.63,10,6,0,41,29,49,0.06,7,Fog-Snow,336
2013-2-11,33,18,3,17,10,0,86,67,47,30.21,30.13,30.06,10,10,10,21,4,26,0.00,0,,290
2013-2-12,47,30,13,21,15,5,67,49,31,30.07,30.01,29.91,10,10,10,25,9,31,0.00,3,,308
2013-2-13,50,36,22,27,22,18,75,55,34,29.99,29.87,29.77,10,10,10,41,16,48,0.00,3,,300
2013-2-14,33,21,8,22,16,4,80,62,43,30.41,30.22,30.01,10,8,1,43,21,53,T,4,Snow,325
2013-2-15,34,21,7,16,11,4,77,56,35,30.46,30.38,30.15,10,10,8,25,10,37,T,4,Snow,323
2013-2-16,57,41,24,25,22,15,69,50,30,30.12,29.98,29.83,10,10,10,28,12,35,0.00,3,,332
2013-2-17,56,39,22,27,22,15,81,51,20,29.80,29.67,29.51,10,10,10,43,16,52,0.00,0,,324
2013-2-18,34,23,12,22,16,8,80,65,49,30.26,30.02,29.72,10,9,2,44,25,53,T,5,Snow,341
2013-2-19,25,15,5,13,7,3,92,74,56,30.33,30.22,30.02,10,9,4,23,13,28,T,5,Snow,125
2013-2-20,34,23,11,18,11,4,76,58,39,30.13,29.99,29.82,10,10,10,26,17,32,0.00,4,,157
2013-2-21,25,20,15,20,17,12,92,83,74,30.09,29.98,29.88,10,4,1,18,8,21,0.11,8,Snow,119
2013-2-22,37,25,12,25,16,9,88,74,59,30.07,29.96,29.86,10,9,3,10,3,15,T,6,Snow,152
2013-2-23,46,29,12,29,15,8,84,55,25,29.83,29.76,29.68,10,10,10,12,5,15,0.00,3,,358
2013-2-24,35,27,18,31,25,15,89,75,61,30.19,30.01,29.81,10,9,1,32,18,40,0.01,7,Rain-Snow,332
2013-2-25,50,30,9,18,12,2,80,47,14,30.17,30.01,29.88,10,10,10,23,9,30,0.00,0,,182
2013-2-26,45,31,16,30,23,11,89,65,41,30.16,29.98,29.81,10,8,1,37,19,46,T,5,Snow,335
2013-2-27,41,29,16,21,19,15,84,61,38,30.33,30.25,30.09,10,10,10,31,16,36,0.00,3,,352
2013-2-28,43,28,12,30,21,10,100,73,45,30.34,30.27,30.13,10,9,2,24,4,29,T,4,Snow,4